Time;durP1;ratioP1;P1;durP2;ratioP2;P2;SDS_P1;SDS_P2;PMS_P1;PMS_P2;Temp;Humidity;BMP_temperature;BMP_pressure;BME280_temperature;BME280_humidity;BME280_pressure;Samples;Min_cycle;Max_cycle;Signal;HPM_P1;HPM_P2
2023/09/25 00:01:10;;;;;;;5.53;1.80;;;14.00;1.00;;;;;;5036264;28;21033;-81
2023/09/25 00:03:36;;;;;;;2.90;1.53;;;13.90;1.00;;;;;;5037279;28;20221;-80
2023/09/25 00:06:01;;;;;;;3.40;1.90;;;13.90;1.00;;;;;;5051401;28;20443;-80
2023/09/25 00:08:27;;;;;;;5.23;2.13;;;13.80;30.90;;;;;;5055794;28;20181;-79
2023/09/25 00:10:52;;;;;;;3.20;2.17;;;13.70;99.90;;;;;;5053831;28;20795;-80
2023/09/25 00:13:21;;;;;;;3.50;2.50;;;13.70;99.90;;;;;;5055164;28;20571;-80
2023/09/25 00:15:47;;;;;;;3.57;1.80;;;13.60;99.90;;;;;;5055384;28;20219;-80
2023/09/25 00:18:15;;;;;;;2.27;1.60;;;13.60;99.90;;;;;;5054287;28;20941;-80
2023/09/25 00:20:43;;;;;;;2.80;2.13;;;13.60;99.90;;;;;;5053358;28;20257;-81
2023/09/25 00:23:09;;;;;;;5.37;2.00;;;13.60;99.90;;;;;;5052876;28;20460;-80
2023/09/25 00:25:34;;;;;;;3.50;2.20;;;13.60;99.90;;;;;;5035858;28;20817;-81
2023/09/25 00:28:02;;;;;;;5.63;1.97;;;13.50;1.00;;;;;;5048098;28;20179;-80
2023/09/25 00:30:28;;;;;;;4.40;1.70;;;13.50;99.90;;;;;;5035862;28;20184;-79
2023/09/25 00:32:54;;;;;;;2.27;1.73;;;13.50;99.90;;;;;;5035704;28;20452;-81
2023/09/25 00:35:20;;;;;;;3.40;1.90;;;13.40;1.00;;;;;;5036394;28;20432;-81
2023/09/25 00:37:46;;;;;;;3.70;1.80;;;13.40;1.00;;;;;;5051857;28;20442;-80
2023/09/25 00:40:17;;;;;;;2.90;2.20;;;13.30;1.00;;;;;;5053563;28;20435;-81
2023/09/25 00:42:50;;;;;;;5.03;2.27;;;13.30;1.00;;;;;;5055764;28;20460;-79
2023/09/25 00:45:16;;;;;;;2.37;1.63;;;13.30;1.00;;;;;;5050687;28;20428;-81
2023/09/25 00:47:43;;;;;;;3.43;1.90;;;13.30;1.00;;;;;;5045125;28;20963;-81
2023/09/25 00:50:09;;;;;;;5.10;2.10;;;13.20;1.00;;;;;;5049046;28;20440;-80
2023/09/25 00:52:39;;;;;;;4.17;1.73;;;13.20;1.00;;;;;;5033496;28;20474;-80
2023/09/25 00:55:15;;;;;;;2.33;1.90;;;13.20;11.60;;;;;;5051426;28;20424;-79
2023/09/25 00:57:42;;;;;;;3.43;2.00;;;13.20;27.50;;;;;;5046029;28;20536;-79
2023/09/25 01:00:11;;;;;;;4.57;2.10;;;13.10;99.90;;;;;;5052231;28;20524;-80
2023/09/25 01:02:40;;;;;;;5.43;2.37;;;13.10;99.90;;;;;;5032262;28;20471;-80
2023/09/25 01:05:10;;;;;;;3.20;2.00;;;13.10;99.90;;;;;;5048188;28;20972;-80
2023/09/25 01:07:38;;;;;;;2.93;2.10;;;13.10;99.90;;;;;;5053215;28;20466;-80
2023/09/25 01:10:17;;;;;;;4.43;2.27;;;13.00;99.90;;;;;;5052244;28;20439;-81
2023/09/25 01:12:43;;;;;;;3.57;1.93;;;12.90;1.00;;;;;;5031082;28;20452;-81
2023/09/25 01:15:09;;;;;;;3.70;2.07;;;12.90;1.00;;;;;;5054503;28;21099;-80
2023/09/25 01:17:35;;;;;;;4.37;2.10;;;12.90;1.00;;;;;;5054366;28;20431;-80
2023/09/25 01:20:12;;;;;;;2.30;1.83;;;12.90;1.00;;;;;;5052513;28;20447;-79
2023/09/25 01:22:46;;;;;;;3.80;2.33;;;12.80;93.90;;;;;;5051435;28;20194;-81
2023/09/25 01:25:12;;;;;;;3.40;1.83;;;12.80;99.90;;;;;;5028842;28;20436;-81
2023/09/25 01:27:39;;;;;;;3.63;2.23;;;12.80;99.90;;;;;;5032696;28;20918;-80
2023/09/25 01:30:08;;;;;;;4.47;2.70;;;12.70;99.90;;;;;;5050125;28;20483;-80
2023/09/25 01:32:34;;;;;;;3.67;2.37;;;12.80;99.90;;;;;;5049725;28;20455;-80
2023/09/25 01:35:01;;;;;;;4.27;2.23;;;12.70;99.90;;;;;;5047213;28;20428;-77
2023/09/25 01:37:27;;;;;;;3.30;2.30;;;12.70;99.90;;;;;;5049846;28;20566;-80
2023/09/25 01:39:53;;;;;;;3.67;2.40;;;12.80;99.90;;;;;;5048302;28;20541;-79
2023/09/25 01:42:18;;;;;;;4.20;2.10;;;12.80;1.00;;;;;;5049129;28;20484;-80
2023/09/25 01:44:44;;;;;;;4.13;2.30;;;12.80;1.00;;;;;;5032193;28;20254;-80
2023/09/25 01:47:09;;;;;;;9.23;2.37;;;12.80;1.00;;;;;;5034150;28;20686;-80
2023/09/25 01:49:34;;;;;;;2.43;1.83;;;12.80;1.00;;;;;;5047902;28;20202;-80
2023/09/25 01:52:07;;;;;;;3.00;2.10;;;12.90;1.00;;;;;;5032772;28;20639;-80
2023/09/25 01:54:32;;;;;;;6.23;2.07;;;12.90;99.90;;;;;;5048497;28;20548;-79
2023/09/25 01:56:58;;;;;;;2.73;2.03;;;12.90;99.90;;;;;;5056381;28;20542;-81
2023/09/25 01:59:23;;;;;;;2.80;2.10;;;13.00;99.90;;;;;;5049598;28;20197;-79
2023/09/25 02:01:49;;;;;;;4.10;2.23;;;12.90;99.90;;;;;;5046724;28;20264;-79
2023/09/25 02:04:14;;;;;;;3.37;2.07;;;12.90;99.90;;;;;;5049431;28;20284;-79
2023/09/25 02:06:40;;;;;;;3.80;1.90;;;12.90;99.90;;;;;;5050472;28;20196;-81
2023/09/25 02:09:05;;;;;;;3.70;1.77;;;12.90;99.90;;;;;;5050991;28;20178;-81
2023/09/25 02:11:31;;;;;;;3.47;2.30;;;12.90;99.90;;;;;;5053913;28;20178;-79
2023/09/25 02:13:56;;;;;;;2.27;2.07;;;12.90;99.90;;;;;;5055717;28;20249;-81
2023/09/25 02:16:22;;;;;;;4.40;2.60;;;12.90;99.90;;;;;;5054955;28;20188;-80
2023/09/25 02:18:47;;;;;;;4.17;2.50;;;12.90;99.90;;;;;;5056365;28;20228;-77
2023/09/25 02:21:13;;;;;;;3.30;2.20;;;12.80;99.90;;;;;;5056504;28;20185;-81
2023/09/25 02:23:39;;;;;;;4.20;2.27;;;12.80;99.90;;;;;;5053100;28;20220;-80
2023/09/25 02:26:04;;;;;;;3.60;2.13;;;12.80;99.90;;;;;;5038536;28;20178;-80
2023/09/25 02:28:30;;;;;;;3.73;2.17;;;12.80;1.00;;;;;;5053883;28;20436;-79
2023/09/25 02:30:55;;;;;;;5.00;2.47;;;12.80;1.00;;;;;;5035460;28;20194;-80
2023/09/25 02:33:21;;;;;;;2.90;2.10;;;12.70;1.00;;;;;;5051364;28;20264;-80
2023/09/25 02:35:46;;;;;;;2.87;2.40;;;12.70;1.00;;;;;;5037393;28;20196;-80
2023/09/25 02:38:12;;;;;;;3.30;1.77;;;12.70;1.00;;;;;;5055200;28;20181;-81
2023/09/25 02:40:38;;;;;;;6.10;2.50;;;12.60;1.00;;;;;;5055423;28;20247;-80
2023/09/25 02:43:04;;;;;;;6.37;2.07;;;12.60;1.00;;;;;;5054685;28;20220;-77
2023/09/25 02:45:29;;;;;;;3.10;2.23;;;12.70;1.00;;;;;;5054725;28;20444;-81
2023/09/25 02:47:55;;;;;;;4.20;2.60;;;12.60;1.00;;;;;;5055474;28;20181;-80
2023/09/25 02:50:20;;;;;;;3.73;2.40;;;12.60;37.30;;;;;;5055399;28;20239;-80
2023/09/25 02:52:46;;;;;;;3.37;2.47;;;12.50;99.90;;;;;;5054296;28;20217;-80
2023/09/25 02:55:13;;;;;;;3.07;2.20;;;12.50;99.90;;;;;;5036792;28;20182;-80
2023/09/25 02:57:38;;;;;;;3.40;2.37;;;12.50;99.90;;;;;;5031184;28;20439;-80
2023/09/25 03:00:10;;;;;;;4.70;2.07;;;12.50;99.90;;;;;;5052443;28;20980;-80
2023/09/25 03:02:36;;;;;;;2.53;2.00;;;12.50;99.90;;;;;;5053048;28;20690;-80
2023/09/25 03:05:01;;;;;;;4.20;2.30;;;12.50;99.90;;;;;;5052602;28;20469;-80
2023/09/25 03:07:27;;;;;;;5.63;2.43;;;12.50;99.90;;;;;;5034069;28;20674;-80
2023/09/25 03:09:52;;;;;;;3.33;1.90;;;12.40;99.90;;;;;;5033895;28;20186;-80
2023/09/25 03:12:19;;;;;;;3.90;2.07;;;12.40;99.90;;;;;;5051985;28;20213;-80
2023/09/25 03:14:44;;;;;;;4.73;2.30;;;12.40;1.00;;;;;;5051642;28;20615;-80
2023/09/25 03:17:10;;;;;;;3.80;1.90;;;12.40;1.00;;;;;;5034509;28;20453;-79
2023/09/25 03:19:35;;;;;;;2.80;1.80;;;12.40;1.00;;;;;;5034854;28;20213;-80
2023/09/25 03:22:01;;;;;;;2.50;2.10;;;12.30;1.00;;;;;;5051057;28;20615;-80
2023/09/25 03:24:27;;;;;;;2.50;1.60;;;12.30;1.00;;;;;;5037866;28;20465;-80
2023/09/25 03:26:52;;;;;;;2.87;2.03;;;12.30;1.00;;;;;;5051246;28;20817;-78
2023/09/25 03:29:18;;;;;;;3.23;1.87;;;12.30;1.00;;;;;;5053192;28;20201;-79
2023/09/25 03:31:43;;;;;;;3.20;1.63;;;12.30;23.00;;;;;;5052459;28;20197;-79
2023/09/25 03:34:09;;;;;;;4.80;2.10;;;12.30;1.00;;;;;;5053202;28;20248;-80
2023/09/25 03:36:34;;;;;;;3.63;1.93;;;12.30;1.00;;;;;;5051763;28;20664;-81
2023/09/25 03:39:00;;;;;;;2.77;2.47;;;12.30;1.00;;;;;;5052186;28;20229;-80
2023/09/25 03:41:25;;;;;;;2.90;1.80;;;12.30;1.00;;;;;;5053443;28;20181;-79
2023/09/25 03:43:51;;;;;;;7.83;1.90;;;12.30;1.00;;;;;;5055243;28;20230;-79
2023/09/25 03:46:16;;;;;;;1.83;1.63;;;12.30;1.00;;;;;;5053935;28;20197;-80
2023/09/25 03:48:42;;;;;;;2.77;2.10;;;12.30;1.00;;;;;;5058807;28;20185;-80
2023/09/25 03:51:07;;;;;;;4.40;2.07;;;12.30;1.00;;;;;;5051697;28;20700;-78
2023/09/25 03:53:33;;;;;;;10.80;2.43;;;12.40;1.00;;;;;;5053640;28;20214;-81
2023/09/25 03:55:58;;;;;;;2.80;1.80;;;12.30;1.00;;;;;;5051934;28;20571;-80
2023/09/25 03:58:24;;;;;;;5.13;2.37;;;12.30;1.00;;;;;;5052150;28;20198;-81
2023/09/25 04:00:52;;;;;;;2.80;2.07;;;12.30;1.00;;;;;;5052076;28;20222;-80
2023/09/25 04:03:17;;;;;;;3.17;2.10;;;12.30;1.00;;;;;;5035945;28;20202;-80
2023/09/25 04:05:43;;;;;;;4.57;2.13;;;12.40;1.00;;;;;;5053005;28;20443;-80
2023/09/25 04:08:09;;;;;;;2.70;1.83;;;12.30;1.00;;;;;;5052575;28;20195;-77
2023/09/25 04:10:34;;;;;;;2.87;2.00;;;12.30;23.00;;;;;;5052761;28;20185;-80
2023/09/25 04:13:00;;;;;;;2.83;2.47;;;12.30;99.90;;;;;;5054839;28;20205;-80
2023/09/25 04:15:26;;;;;;;3.00;2.10;;;12.30;99.90;;;;;;5053069;28;20174;-79
2023/09/25 04:17:52;;;;;;;2.50;2.00;;;12.30;99.90;;;;;;5053389;28;20893;-80
2023/09/25 04:20:24;;;;;;;3.17;2.20;;;12.30;1.00;;;;;;5050353;28;20174;-81
2023/09/25 04:22:51;;;;;;;4.87;1.73;;;12.30;1.00;;;;;;5033903;28;20483;-81
2023/09/25 04:25:20;;;;;;;7.10;2.50;;;12.30;1.00;;;;;;5052185;28;20812;-81
2023/09/25 04:27:50;;;;;;;2.87;2.30;;;12.30;99.90;;;;;;5032471;28;20432;-80
2023/09/25 04:30:17;;;;;;;3.37;2.33;;;12.30;99.90;;;;;;5046779;28;20486;-80
2023/09/25 04:32:44;;;;;;;2.80;2.10;;;12.20;1.00;;;;;;5052856;28;20463;-80
2023/09/25 04:35:12;;;;;;;5.10;2.40;;;12.20;93.80;;;;;;5032478;28;20571;-80
2023/09/25 04:37:38;;;;;;;3.53;2.37;;;12.20;54.30;;;;;;5033519;28;20451;-80
2023/09/25 04:40:22;;;;;;;5.97;2.53;;;12.10;1.00;;;;;;5052059;28;20448;-80
2023/09/25 04:42:52;;;;;;;5.20;2.40;;;12.00;41.60;;;;;;5048365;28;21027;-80
2023/09/25 04:45:18;;;;;;;3.30;2.33;;;12.00;99.90;;;;;;5045496;28;20439;-80
2023/09/25 04:47:48;;;;;;;2.80;2.27;;;12.00;83.30;;;;;;5051267;28;20436;-80
2023/09/25 04:50:15;;;;;;;4.97;2.50;;;12.00;99.90;;;;;;5052433;28;20431;-81
2023/09/25 04:52:42;;;;;;;2.60;2.03;;;12.00;99.90;;;;;;5051893;28;20841;-76
2023/09/25 04:55:10;;;;;;;8.10;2.43;;;12.00;99.90;;;;;;5052500;28;20436;-79
2023/09/25 04:57:37;;;;;;;5.03;2.33;;;11.90;99.90;;;;;;5034306;28;20468;-80
2023/09/25 05:02:59;;;;;;;2.63;2.07;;;11.90;99.90;;;;;;5025758;28;20472;-80
2023/09/25 05:05:26;;;;;;;3.30;1.97;;;11.90;99.90;;;;;;5034478;28;20440;-79
2023/09/25 05:07:53;;;;;;;3.03;2.13;;;12.00;99.90;;;;;;5052102;28;20949;-81
2023/09/25 05:10:25;;;;;;;5.77;2.63;;;12.00;20.00;;;;;;5053231;28;20813;-80
2023/09/25 05:12:52;;;;;;;4.83;2.40;;;12.00;1.00;;;;;;5056593;28;20506;-80
2023/09/25 05:15:18;;;;;;;4.30;2.33;;;12.10;99.90;;;;;;5051212;28;20431;-79
2023/09/25 05:17:44;;;;;;;3.50;2.80;;;12.10;99.90;;;;;;5034089;28;20945;-81
2023/09/25 05:20:12;;;;;;;2.90;2.43;;;12.10;99.90;;;;;;5053289;28;20173;-81
2023/09/25 05:22:43;;;;;;;4.57;3.00;;;12.10;99.90;;;;;;5045810;28;20484;-81
2023/09/25 05:25:10;;;;;;;6.17;3.73;;;12.10;99.90;;;;;;5052135;28;20459;-80
2023/09/25 05:27:37;;;;;;;3.20;2.73;;;12.00;99.90;;;;;;5032741;28;20444;-82
2023/09/25 05:30:09;;;;;;;5.40;2.73;;;12.00;99.90;;;;;;5033737;28;20432;-80
2023/09/25 05:32:35;;;;;;;5.40;3.07;;;12.00;1.00;;;;;;5053189;28;20436;-80
2023/09/25 05:35:01;;;;;;;3.40;2.93;;;12.10;99.90;;;;;;5052804;28;20456;-80
2023/09/25 05:37:26;;;;;;;5.80;3.03;;;12.10;94.30;;;;;;5049325;28;20441;-80
2023/09/25 05:39:52;;;;;;;4.20;2.80;;;12.10;99.90;;;;;;5052738;28;20186;-79
2023/09/25 05:42:17;;;;;;;4.53;2.47;;;12.20;56.60;;;;;;5045217;28;20674;-81
2023/09/25 05:44:43;;;;;;;3.67;2.73;;;12.30;1.00;;;;;;5053950;28;20225;-80
2023/09/25 05:47:09;;;;;;;4.40;3.40;;;12.40;99.90;;;;;;5055018;28;20182;-80
2023/09/25 05:49:34;;;;;;;3.37;2.50;;;12.50;1.00;;;;;;5048900;28;20194;-79
2023/09/25 05:52:00;;;;;;;3.90;2.70;;;12.60;99.90;;;;;;5051929;28;20225;-78
2023/09/25 05:54:25;;;;;;;5.43;2.80;;;12.70;1.00;;;;;;5049700;28;20639;-80
2023/09/25 05:56:50;;;;;;;4.40;2.70;;;12.80;99.90;;;;;;5055826;28;20245;-81
2023/09/25 05:59:16;;;;;;;4.27;2.43;;;13.00;1.00;;;;;;5052740;28;20198;-80
2023/09/25 06:01:42;;;;;;;4.13;2.50;;;13.20;1.00;;;;;;5052958;28;20216;-79
2023/09/25 06:04:09;;;;;;;5.53;2.50;;;13.70;99.90;;;;;;5052283;28;20245;-80
2023/09/25 06:06:35;;;;;;;5.70;3.07;;;14.70;99.90;;;;;;5054766;28;20440;-80
2023/09/25 06:09:01;;;;;;;4.30;2.20;;;16.50;1.00;;;;;;5049122;28;20452;-78
2023/09/25 06:11:27;;;;;;;6.30;2.53;;;17.90;1.00;;;;;;5050243;28;20502;-80
2023/09/25 06:13:52;;;;;;;3.47;2.60;;;19.10;99.90;;;;;;5049393;28;20467;-81
2023/09/25 06:16:18;;;;;;;7.00;2.73;;;21.40;1.00;;;;;;5053576;28;20244;-81
2023/09/25 06:18:43;;;;;;;8.53;3.13;;;21.90;99.90;;;;;;5054355;28;20190;-80
2023/09/25 06:21:12;;;;;;;3.60;1.90;;;22.20;99.90;;;;;;5038736;28;20190;-80
2023/09/25 06:23:42;;;;;;;5.10;2.27;;;23.30;99.90;;;;;;5053634;28;20893;-80
2023/09/25 06:26:09;;;;;;;3.87;2.30;;;23.50;99.90;;;;;;5055057;28;20431;-80
2023/09/25 06:28:34;;;;;;;3.27;2.10;;;23.30;99.90;;;;;;5050418;28;20436;-80
2023/09/25 06:31:00;;;;;;;4.60;2.30;;;23.70;99.90;;;;;;5053025;28;20838;-81
2023/09/25 06:33:28;;;;;;;4.03;2.20;;;24.80;99.90;;;;;;5034941;28;20476;-80
2023/09/25 06:35:54;;;;;;;3.67;2.30;;;26.30;99.90;;;;;;5050364;28;20256;-80
2023/09/25 06:38:19;;;;;;;5.03;1.97;;;25.80;99.90;;;;;;5055139;28;20519;-80
2023/09/25 06:40:45;;;;;;;3.70;2.60;;;24.90;99.90;;;;;;5053046;28;20225;-80
2023/09/25 06:43:12;;;;;;;6.23;2.40;;;25.50;99.90;;;;;;5034451;28;20243;-81
2023/09/25 06:45:38;;;;;;;8.97;2.63;;;25.30;99.90;;;;;;5052891;28;20510;-82
2023/09/25 06:48:04;;;;;;;3.77;2.07;;;25.60;99.90;;;;;;5053806;28;20956;-81
2023/09/25 06:50:30;;;;;;;4.10;2.00;;;25.70;99.90;;;;;;5034874;28;20532;-81
2023/09/25 06:52:56;;;;;;;3.10;2.17;;;26.20;99.90;;;;;;5040333;28;20516;-81
2023/09/25 06:55:22;;;;;;;3.67;2.10;;;25.90;99.90;;;;;;5052176;28;20445;-81
2023/09/25 06:57:47;;;;;;;2.93;1.97;;;26.00;99.90;;;;;;5055615;28;20189;-80
2023/09/25 07:00:13;;;;;;;4.00;1.83;;;25.90;99.90;;;;;;5053975;28;20189;-80
2023/09/25 07:02:39;;;;;;;3.37;1.97;;;26.70;99.90;;;;;;5036437;28;20629;-80
2023/09/25 07:05:05;;;;;;;3.87;2.07;;;26.90;99.90;;;;;;5031925;28;20464;-81
2023/09/25 07:07:30;;;;;;;3.83;2.23;;;26.60;99.90;;;;;;5052576;28;20187;-80
2023/09/25 07:09:57;;;;;;;4.83;2.03;;;26.70;99.90;;;;;;5049084;28;20215;-79
2023/09/25 07:12:22;;;;;;;3.40;2.20;;;26.40;99.90;;;;;;5052509;28;20203;-79
2023/09/25 07:14:52;;;;;;;3.30;1.83;;;26.60;99.90;;;;;;5051249;28;20449;-79
2023/09/25 07:17:17;;;;;;;3.67;2.00;;;26.90;99.90;;;;;;5050413;28;20198;-77
2023/09/25 07:19:43;;;;;;;3.57;2.10;;;28.20;99.90;;;;;;5034803;28;20468;-80
2023/09/25 07:22:08;;;;;;;3.73;1.80;;;28.50;99.90;;;;;;5052711;28;20276;-79
2023/09/25 07:24:34;;;;;;;3.43;2.40;;;28.70;99.90;;;;;;5052003;28;20771;-78
2023/09/25 07:26:59;;;;;;;4.73;2.00;;;28.40;99.90;;;;;;5051915;28;20211;-80
2023/09/25 07:29:25;;;;;;;2.27;1.50;;;29.90;99.90;;;;;;5051093;28;20174;-79
2023/09/25 07:31:51;;;;;;;3.93;1.87;;;31.10;99.90;;;;;;5050429;28;20784;-79
2023/09/25 07:34:16;;;;;;;3.90;1.57;;;31.80;99.90;;;;;;5051276;28;20189;-79
2023/09/25 07:36:42;;;;;;;2.80;1.60;;;32.10;99.90;;;;;;5052687;28;20188;-80
2023/09/25 07:39:13;;;;;;;4.47;1.70;;;31.10;99.90;;;;;;5035684;28;20215;-79
2023/09/25 07:41:39;;;;;;;2.50;2.00;;;30.10;99.90;;;;;;5053134;28;20185;-80
2023/09/25 07:44:08;;;;;;;3.80;1.60;;;29.70;99.90;;;;;;5059677;28;20472;-80
2023/09/25 07:46:33;;;;;;;5.10;1.87;;;30.40;99.90;;;;;;5035520;28;20451;-80
2023/09/25 07:48:59;;;;;;;3.43;1.80;;;31.10;99.90;;;;;;5051450;28;20439;-79
2023/09/25 07:51:25;;;;;;;2.40;1.73;;;30.80;99.90;;;;;;5050475;28;20451;-79
2023/09/25 07:53:53;;;;;;;2.67;1.80;;;31.40;99.90;;;;;;5052023;28;20192;-79
2023/09/25 07:56:19;;;;;;;3.90;1.30;;;31.00;99.90;;;;;;5035801;28;20188;-79
2023/09/25 07:58:44;;;;;;;3.80;1.90;;;30.40;99.00;;;;;;5050500;28;20461;-81
2023/09/25 08:01:12;;;;;;;9.23;1.93;;;30.20;98.40;;;;;;5051167;28;20252;-81
2023/09/25 08:03:40;;;;;;;2.07;1.87;;;30.40;97.90;;;;;;5050828;28;20275;-82
2023/09/25 08:06:06;;;;;;;2.80;1.77;;;31.60;99.90;;;;;;5034621;28;20482;-80
2023/09/25 08:08:34;;;;;;;2.03;1.67;;;31.70;99.90;;;;;;5033030;28;20538;-82
2023/09/25 08:11:00;;;;;;;4.03;1.77;;;31.90;96.70;;;;;;5046682;28;20555;-81
2023/09/25 08:13:26;;;;;;;5.20;1.90;;;32.60;98.70;;;;;;5044832;28;20464;-80
2023/09/25 08:15:51;;;;;;;4.23;2.20;;;33.30;98.40;;;;;;5049866;28;20182;-81
2023/09/25 08:18:17;;;;;;;4.40;1.77;;;33.30;94.70;;;;;;5048945;28;20207;-81
2023/09/25 08:20:42;;;;;;;5.00;1.77;;;33.30;93.60;;;;;;5053762;28;20196;-82
2023/09/25 08:23:09;;;;;;;3.67;1.77;;;33.70;93.40;;;;;;5046058;28;20258;-78
2023/09/25 08:25:35;;;;;;;9.67;2.27;;;34.50;95.00;;;;;;5052746;28;20530;-79
2023/09/25 08:28:01;;;;;;;2.80;1.80;;;32.90;84.40;;;;;;5047684;28;20499;-80
2023/09/25 08:30:26;;;;;;;5.00;2.20;;;31.70;75.10;;;;;;5032729;28;20707;-77
2023/09/25 08:32:53;;;;;;;5.70;1.53;;;31.20;71.80;;;;;;5043912;28;20278;-80
2023/09/25 08:35:19;;;;;;;7.13;2.23;;;31.60;72.20;;;;;;5049158;28;20196;-80
2023/09/25 08:37:45;;;;;;;3.40;1.40;;;31.30;68.70;;;;;;5049611;28;20433;-80
2023/09/25 08:40:11;;;;;;;2.47;1.83;;;31.60;69.20;;;;;;5052086;28;20195;-81
2023/09/25 08:42:39;;;;;;;3.40;1.40;;;31.40;68.40;;;;;;5051525;28;20242;-81
2023/09/25 08:45:05;;;;;;;4.37;1.83;;;30.80;66.00;;;;;;5051719;28;20251;-80
2023/09/25 08:47:34;;;;;;;2.80;1.90;;;30.50;63.30;;;;;;5032781;28;20969;-77
2023/09/25 08:50:00;;;;;;;4.10;1.70;;;31.00;67.60;;;;;;5043896;28;20438;-80
2023/09/25 08:52:27;;;;;;;5.13;2.00;;;31.00;67.10;;;;;;5050949;28;20528;-78
2023/09/25 08:54:52;;;;;;;3.60;1.87;;;30.90;66.70;;;;;;5051418;28;20443;-81
2023/09/25 08:57:19;;;;;;;3.63;1.90;;;30.90;63.70;;;;;;5049209;28;20444;-81
2023/09/25 08:59:47;;;;;;;3.97;1.70;;;30.00;61.20;;;;;;5053877;28;20433;-80
2023/09/25 09:02:13;;;;;;;3.83;2.13;;;29.90;64.00;;;;;;5051725;28;20554;-82
2023/09/25 09:04:39;;;;;;;5.33;1.73;;;31.90;93.40;;;;;;5051517;28;20849;-81
2023/09/25 09:07:05;;;;;;;3.50;1.80;;;31.90;76.10;;;;;;5049803;28;20488;-82
2023/09/25 09:09:35;;;;;;;4.33;1.90;;;32.30;77.60;;;;;;5051500;28;20212;-81
2023/09/25 09:12:01;;;;;;;2.10;1.47;;;32.80;84.70;;;;;;5032505;28;20460;-81
2023/09/25 09:14:56;;;;;;;3.77;1.80;;;33.60;85.10;;;;;;5048852;28;20436;-80
2023/09/25 09:17:27;;;;;;;4.37;1.70;;;33.40;79.70;;;;;;5035764;28;20451;-81
2023/09/25 09:19:52;;;;;;;2.27;1.60;;;32.70;76.10;;;;;;5044202;28;20444;-80
2023/09/25 09:22:21;;;;;;;8.70;1.83;;;33.00;75.30;;;;;;5037097;28;20464;-80
2023/09/25 09:24:48;;;;;;;4.63;2.27;;;32.20;76.40;;;;;;5046511;28;20194;-81
2023/09/25 09:27:14;;;;;;;2.90;2.13;;;31.90;71.00;;;;;;5048199;28;20449;-81
2023/09/25 09:29:44;;;;;;;3.80;1.70;;;32.60;72.00;;;;;;5050452;28;20929;-81
2023/09/25 09:32:10;;;;;;;3.73;1.63;;;33.90;83.80;;;;;;5049056;28;20440;-80
2023/09/25 09:34:41;;;;;;;2.43;1.70;;;35.30;90.80;;;;;;5052171;28;20849;-82
2023/09/25 09:37:10;;;;;;;2.90;1.77;;;35.30;92.40;;;;;;5049263;28;20453;-81
2023/09/25 09:39:36;;;;;;;7.30;1.80;;;34.40;91.90;;;;;;5051232;28;20479;-80
2023/09/25 09:42:08;;;;;;;2.53;1.90;;;34.80;93.10;;;;;;5050732;28;21239;-81
2023/09/25 09:44:35;;;;;;;2.33;1.90;;;34.70;95.60;;;;;;5052722;28;21010;-81
2023/09/25 09:47:06;;;;;;;5.00;1.90;;;35.20;97.10;;;;;;5050651;28;20450;-81
2023/09/25 09:49:40;;;;;;;2.80;2.33;;;35.10;95.30;;;;;;5050568;28;20787;-81
2023/09/25 09:52:07;;;;;;;5.23;2.13;;;35.50;97.10;;;;;;5051774;28;21003;-82
2023/09/25 09:54:40;;;;;;;4.90;2.33;;;34.80;96.20;;;;;;5053168;28;20452;-80
2023/09/25 09:57:07;;;;;;;3.60;1.57;;;34.60;94.30;;;;;;5053026;28;20442;-81
2023/09/25 09:59:32;;;;;;;3.33;1.63;;;35.50;98.20;;;;;;5053213;28;20436;-81
2023/09/25 10:01:59;;;;;;;3.20;2.00;;;34.80;95.80;;;;;;5053522;28;20810;-80
2023/09/25 10:04:26;;;;;;;3.00;1.67;;;34.00;93.00;;;;;;5055692;28;20580;-81
2023/09/25 10:06:53;;;;;;;4.47;2.00;;;34.50;95.70;;;;;;5056624;28;20440;-81
2023/09/25 10:09:20;;;;;;;3.80;2.13;;;35.20;95.30;;;;;;5051886;28;20428;-81
2023/09/25 10:11:48;;;;;;;4.10;1.67;;;35.90;98.20;;;;;;5053532;28;20460;-81
2023/09/25 10:14:19;;;;;;;3.83;1.80;;;35.70;98.00;;;;;;5052695;28;20493;-80
2023/09/25 10:17:06;;;;;;;2.60;1.43;;;35.60;98.20;;;;;;5052837;28;20766;-81
2023/09/25 10:19:41;;;;;;;5.97;2.13;;;35.80;97.90;;;;;;5053392;28;20456;-83
2023/09/25 10:22:11;;;;;;;3.27;1.97;;;34.70;93.80;;;;;;5058495;28;20456;-82
2023/09/25 10:24:37;;;;;;;4.10;1.60;;;34.70;92.70;;;;;;5054942;28;21962;-81
2023/09/25 10:27:04;;;;;;;4.77;2.17;;;34.30;91.20;;;;;;5035348;28;20803;-81
2023/09/25 10:29:29;;;;;;;13.33;2.40;;;35.00;93.00;;;;;;5036425;28;20440;-79
2023/09/25 10:31:57;;;;;;;2.80;1.70;;;34.50;91.70;;;;;;5055912;28;20539;-81
2023/09/25 10:34:25;;;;;;;3.10;1.60;;;34.60;92.50;;;;;;5036561;28;20190;-81
2023/09/25 10:36:56;;;;;;;3.80;2.07;;;35.40;94.70;;;;;;5049143;28;20833;-81
2023/09/25 10:39:25;;;;;;;3.80;1.83;;;34.70;94.20;;;;;;5055726;28;20428;-81
2023/09/25 10:42:07;;;;;;;4.87;1.50;;;35.80;97.10;;;;;;5054101;28;20460;-81
2023/09/25 10:44:36;;;;;;;3.67;1.73;;;35.50;96.70;;;;;;5047815;28;21069;-80
2023/09/25 10:47:06;;;;;;;5.10;1.70;;;35.10;95.90;;;;;;5049922;28;20439;-81
2023/09/25 10:49:37;;;;;;;3.00;1.80;;;34.50;94.50;;;;;;5060235;28;20437;-81
2023/09/25 10:52:03;;;;;;;4.43;1.80;;;34.20;93.50;;;;;;5048892;28;20452;-81
2023/09/25 10:54:33;;;;;;;3.50;1.70;;;34.80;94.50;;;;;;5053271;28;20440;-81
2023/09/25 10:56:59;;;;;;;2.43;1.43;;;34.90;96.30;;;;;;5055972;28;20443;-81
2023/09/25 10:59:25;;;;;;;2.20;1.90;;;34.80;95.50;;;;;;5056780;28;20440;-81
2023/09/25 11:01:51;;;;;;;2.27;1.30;;;33.80;92.00;;;;;;5050550;28;20212;-82
2023/09/25 11:04:17;;;;;;;2.63;1.50;;;34.60;93.70;;;;;;5054985;28;20472;-81
2023/09/25 11:06:44;;;;;;;2.80;1.33;;;35.20;96.10;;;;;;5053621;28;20536;-81
2023/09/25 11:09:15;;;;;;;5.17;1.80;;;35.70;97.30;;;;;;5053960;28;20194;-81
2023/09/25 11:11:41;;;;;;;2.97;1.50;;;36.30;99.80;;;;;;5053551;28;20436;-82
2023/09/25 11:14:06;;;;;;;5.67;1.90;;;36.60;99.10;;;;;;5054144;28;20447;-82
2023/09/25 11:16:33;;;;;;;2.80;1.43;;;37.30;99.90;;;;;;5053319;28;20655;-79
2023/09/25 11:19:14;;;;;;;3.20;1.83;;;36.50;99.10;;;;;;5057652;28;20440;-80
2023/09/25 11:21:40;;;;;;;1.67;1.20;;;36.10;96.10;;;;;;5053005;28;20467;-81
2023/09/25 11:24:09;;;;;;;3.60;1.67;;;36.70;98.30;;;;;;5054897;28;20523;-81
2023/09/25 11:26:39;;;;;;;3.60;1.60;;;36.00;96.60;;;;;;5037261;28;20436;-80
2023/09/25 11:29:12;;;;;;;1.90;1.33;;;36.50;97.10;;;;;;5055723;28;20858;-81
2023/09/25 11:31:38;;;;;;;5.77;1.47;;;36.70;97.40;;;;;;5051901;28;20486;-82
2023/09/25 11:34:07;;;;;;;3.50;2.17;;;37.30;99.10;;;;;;5050163;28;20444;-80
2023/09/25 11:36:34;;;;;;;3.00;1.47;;;38.30;99.90;;;;;;5051720;28;20444;-79
2023/09/25 11:39:00;;;;;;;2.90;1.30;;;38.80;99.90;;;;;;5054389;28;20851;-81
2023/09/25 11:41:26;;;;;;;1.87;1.60;;;37.70;95.70;;;;;;5052046;28;21009;-81
2023/09/25 11:43:52;;;;;;;3.50;1.47;;;36.70;93.10;;;;;;5054053;28;20514;-81
2023/09/25 11:46:17;;;;;;;2.03;1.70;;;36.30;91.90;;;;;;5034787;28;20174;-81
2023/09/25 11:48:43;;;;;;;4.00;1.40;;;35.80;88.40;;;;;;5054879;28;20182;-81
2023/09/25 11:51:10;;;;;;;5.63;1.57;;;35.50;95.90;;;;;;5049330;28;20190;-80
2023/09/25 11:53:35;;;;;;;2.60;1.40;;;36.20;90.80;;;;;;5052598;28;20554;-80
2023/09/25 11:56:01;;;;;;;3.13;1.53;;;36.00;88.90;;;;;;5057089;28;20517;-80
2023/09/25 11:58:28;;;;;;;4.40;1.60;;;35.90;88.90;;;;;;5054576;28;20192;-80
2023/09/25 12:00:53;;;;;;;4.13;1.70;;;36.50;92.10;;;;;;5066317;28;20178;-80
2023/09/25 12:03:19;;;;;;;2.23;1.70;;;36.30;91.10;;;;;;5059031;28;20457;-80
2023/09/25 12:05:44;;;;;;;1.60;1.30;;;35.60;87.80;;;;;;5031773;28;20178;-81
2023/09/25 12:08:12;;;;;;;3.63;1.63;;;35.10;81.90;;;;;;5052376;28;20183;-81
2023/09/25 12:10:38;;;;;;;2.37;1.40;;;35.50;85.50;;;;;;5030313;28;20244;-80
2023/09/25 12:13:08;;;;;;;2.60;1.50;;;35.50;87.10;;;;;;5046241;28;20456;-80
2023/09/25 12:15:33;;;;;;;3.63;1.77;;;35.10;82.70;;;;;;5035225;28;20429;-81
2023/09/25 12:17:59;;;;;;;2.87;1.67;;;35.00;82.60;;;;;;5035693;28;21332;-81
2023/09/25 12:20:25;;;;;;;5.00;1.60;;;35.30;84.50;;;;;;5055250;28;20174;-82
2023/09/25 12:22:53;;;;;;;2.70;1.47;;;36.40;93.50;;;;;;5056267;28;20198;-80
2023/09/25 12:25:19;;;;;;;5.00;1.33;;;35.70;88.10;;;;;;5047044;28;20456;-80
2023/09/25 12:27:45;;;;;;;1.80;1.20;;;34.90;81.20;;;;;;5047933;28;20796;-82
2023/09/25 12:30:14;;;;;;;1.90;1.30;;;35.70;88.60;;;;;;5054516;28;20448;-81
2023/09/25 12:32:41;;;;;;;2.07;1.47;;;35.50;85.10;;;;;;5055797;28;20491;-81
2023/09/25 12:35:07;;;;;;;3.83;1.50;;;34.60;76.90;;;;;;5048498;28;20452;-79
2023/09/25 12:37:33;;;;;;;2.80;1.50;;;34.10;82.20;;;;;;5052842;28;20461;-80
2023/09/25 12:40:00;;;;;;;2.37;1.50;;;33.30;60.00;;;;;;5053869;28;20443;-80
2023/09/25 12:42:26;;;;;;;2.67;1.50;;;32.50;58.10;;;;;;5045437;28;20456;-80
2023/09/25 12:44:51;;;;;;;4.23;1.33;;;32.60;58.70;;;;;;5058226;28;21112;-79
2023/09/25 12:47:18;;;;;;;2.57;1.70;;;33.10;63.10;;;;;;5035393;28;20444;-78
2023/09/25 12:49:44;;;;;;;3.63;1.30;;;33.60;68.90;;;;;;5052898;28;20182;-80